Time;durP1;ratioP1;P1;durP2;ratioP2;P2;SDS_P1;SDS_P2;PMS_P1;PMS_P2;Temp;Humidity;BMP_temperature;BMP_pressure;BME280_temperature;BME280_humidity;BME280_pressure;Samples;Min_cycle;Max_cycle;Signal;HPM_P1;HPM_P2
2021/10/21 00:00:08;;;;;;;6.60;4.40;;;15.40;88.80;;;;;;5091743;28;20032;-70
2021/10/21 00:02:34;;;;;;;9.48;5.45;;;15.50;88.80;;;;;;5093590;28;20032;-70
2021/10/21 00:05:00;;;;;;;11.82;5.05;;;15.50;88.80;;;;;;5099237;28;20043;-70
2021/10/21 00:07:25;;;;;;;13.52;5.05;;;15.50;88.90;;;;;;5090738;28;20368;-70
2021/10/21 00:09:51;;;;;;;12.88;4.65;;;15.50;88.90;;;;;;5074920;28;20024;-71
2021/10/21 00:12:17;;;;;;;10.73;5.60;;;15.50;89.60;;;;;;5101797;28;20034;-70
2021/10/21 00:14:43;;;;;;;10.90;5.57;;;15.50;89.00;;;;;;5090684;28;20034;-70
2021/10/21 00:17:08;;;;;;;11.05;5.70;;;15.50;89.10;;;;;;5090754;28;20040;-69
2021/10/21 00:19:34;;;;;;;14.30;5.35;;;15.50;89.20;;;;;;5096488;28;20050;-70
2021/10/21 00:22:00;;;;;;;12.45;5.55;;;15.50;89.30;;;;;;5100197;28;20032;-69
2021/10/21 00:24:25;;;;;;;11.00;6.20;;;15.50;89.60;;;;;;5088433;28;20020;-70
2021/10/21 00:26:51;;;;;;;16.10;7.13;;;15.40;89.80;;;;;;5095122;28;20058;-71
2021/10/21 00:29:17;;;;;;;9.25;5.13;;;15.40;90.00;;;;;;5073030;28;20338;-71
2021/10/21 00:31:43;;;;;;;8.18;4.78;;;15.40;90.10;;;;;;5072461;28;20057;-70
2021/10/21 00:34:08;;;;;;;10.48;4.65;;;15.40;90.00;;;;;;5100024;28;20028;-70
2021/10/21 00:36:34;;;;;;;7.10;4.47;;;15.40;90.00;;;;;;5083744;28;20099;-70
2021/10/21 00:39:00;;;;;;;12.88;4.82;;;15.30;90.00;;;;;;5071990;28;20368;-70
2021/10/21 00:41:25;;;;;;;8.95;4.50;;;15.40;90.20;;;;;;5090736;28;20051;-71
2021/10/21 00:44:08;;;;;;;7.13;4.93;;;15.40;90.20;;;;;;5097903;28;20028;-71
2021/10/21 00:46:35;;;;;;;12.88;5.38;;;15.40;90.20;;;;;;5092256;28;20020;-70
2021/10/21 00:49:01;;;;;;;8.45;4.78;;;15.40;90.20;;;;;;5092783;28;20451;-69
2021/10/21 00:51:27;;;;;;;8.68;4.72;;;15.40;90.10;;;;;;5100213;28;20094;-69
2021/10/21 00:53:52;;;;;;;6.88;4.45;;;15.40;90.20;;;;;;5086920;28;20119;-69
2021/10/21 00:56:18;;;;;;;8.68;4.63;;;15.40;90.20;;;;;;5094550;28;20016;-69
2021/10/21 00:58:49;;;;;;;8.85;4.65;;;15.30;90.30;;;;;;5107253;28;20031;-70
2021/10/21 01:01:15;;;;;;;8.25;4.75;;;15.30;90.30;;;;;;5091225;28;20050;-69
2021/10/21 01:03:41;;;;;;;7.13;4.38;;;15.40;90.30;;;;;;5094180;28;20020;-71
2021/10/21 01:06:08;;;;;;;8.27;4.35;;;15.30;90.20;;;;;;5067659;28;20432;-70
2021/10/21 01:08:34;;;;;;;7.55;3.92;;;15.30;90.20;;;;;;5068461;28;20036;-69
2021/10/21 01:11:01;;;;;;;7.18;4.18;;;15.30;90.20;;;;;;5092595;28;20028;-69
2021/10/21 01:13:27;;;;;;;10.93;4.65;;;15.30;90.20;;;;;;5090093;28;20032;-70
2021/10/21 01:16:10;;;;;;;7.07;4.53;;;15.30;90.20;;;;;;5089698;28;20046;-70
2021/10/21 01:18:37;;;;;;;9.00;4.07;;;15.30;90.10;;;;;;5090863;28;20044;-69
2021/10/21 01:21:04;;;;;;;5.80;3.50;;;15.30;89.80;;;;;;5090872;28;20076;-69
2021/10/21 01:23:30;;;;;;;5.65;2.80;;;15.30;88.80;;;;;;5088996;28;20020;-70
2021/10/21 01:25:56;;;;;;;6.20;2.80;;;15.30;88.20;;;;;;5079311;28;20085;-69
2021/10/21 01:28:22;;;;;;;4.78;2.30;;;15.30;87.50;;;;;;5088601;28;20028;-69
2021/10/21 01:30:48;;;;;;;6.93;2.30;;;15.20;86.60;;;;;;5093038;28;20125;-68
2021/10/21 01:33:14;;;;;;;4.05;1.85;;;15.20;85.00;;;;;;5088479;28;20032;-68
2021/10/21 01:35:41;;;;;;;4.80;2.20;;;15.10;84.40;;;;;;5098497;28;20058;-70
2021/10/21 01:38:06;;;;;;;2.38;1.70;;;15.10;84.00;;;;;;5079245;28;20094;-70
2021/10/21 01:40:33;;;;;;;7.05;2.15;;;15.10;83.00;;;;;;5085976;28;20044;-71
2021/10/21 01:42:58;;;;;;;3.13;1.60;;;15.10;81.80;;;;;;5100350;28;20342;-70
2021/10/21 01:45:29;;;;;;;5.03;1.98;;;15.00;81.80;;;;;;5094789;28;20024;-70
2021/10/21 01:47:54;;;;;;;5.93;1.92;;;15.00;81.50;;;;;;5077981;28;20020;-68
2021/10/21 01:50:20;;;;;;;3.83;1.70;;;15.00;82.10;;;;;;5092397;28;20037;-68
2021/10/21 01:52:47;;;;;;;5.53;1.73;;;15.00;81.80;;;;;;5091558;28;20028;-69
2021/10/21 01:55:14;;;;;;;6.55;1.55;;;15.00;82.30;;;;;;5090523;28;20058;-71
2021/10/21 01:57:40;;;;;;;3.35;1.27;;;14.90;82.30;;;;;;5098427;28;20032;-71
2021/10/21 02:00:08;;;;;;;3.72;1.00;;;14.90;82.30;;;;;;5096612;28;20025;-71
2021/10/21 02:02:34;;;;;;;3.10;1.00;;;14.80;80.80;;;;;;5092138;28;20021;-72
2021/10/21 02:05:00;;;;;;;3.67;0.80;;;14.70;79.40;;;;;;5073354;28;20024;-71
2021/10/21 02:07:26;;;;;;;2.72;0.80;;;14.60;78.50;;;;;;5082488;28;20035;-72
2021/10/21 02:09:52;;;;;;;3.17;0.70;;;14.50;78.20;;;;;;5098829;28;20044;-72
2021/10/21 02:12:18;;;;;;;3.58;0.80;;;14.50;78.20;;;;;;5068870;28;20123;-71
2021/10/21 02:14:43;;;;;;;4.78;0.90;;;14.40;78.20;;;;;;5099634;28;20387;-71
2021/10/21 02:17:09;;;;;;;4.93;1.35;;;14.30;77.40;;;;;;5086078;28;20385;-71
2021/10/21 02:19:36;;;;;;;4.53;0.98;;;14.30;77.90;;;;;;5078925;28;20429;-70
2021/10/21 02:22:03;;;;;;;4.10;0.80;;;14.20;78.40;;;;;;5095036;28;20034;-71
2021/10/21 02:24:29;;;;;;;3.78;0.90;;;14.20;78.70;;;;;;5096754;28;20051;-71
2021/10/21 02:26:54;;;;;;;3.55;1.00;;;14.10;79.80;;;;;;5099599;28;20039;-70
2021/10/21 02:29:20;;;;;;;4.22;1.02;;;14.10;80.00;;;;;;5094658;28;20059;-69
2021/10/21 02:31:46;;;;;;;2.90;0.80;;;14.00;79.60;;;;;;5096644;28;20028;-69
2021/10/21 02:34:11;;;;;;;3.30;0.88;;;14.00;80.00;;;;;;5102474;28;20035;-69
2021/10/21 02:36:37;;;;;;;3.95;1.02;;;13.90;80.10;;;;;;5056061;28;20059;-70
2021/10/21 02:39:04;;;;;;;5.03;0.90;;;13.90;80.50;;;;;;5076611;28;20028;-68
2021/10/21 02:41:30;;;;;;;4.10;1.10;;;13.80;80.90;;;;;;5091065;28;20027;-70
2021/10/21 02:43:56;;;;;;;4.07;1.00;;;13.90;80.60;;;;;;5090957;28;20024;-70
2021/10/21 02:46:22;;;;;;;4.65;1.20;;;13.80;79.60;;;;;;5099889;28;20453;-71
2021/10/21 02:48:47;;;;;;;4.43;1.20;;;13.80;79.80;;;;;;5078923;28;20032;-69
2021/10/21 02:51:13;;;;;;;5.75;0.90;;;13.80;79.50;;;;;;5091427;28;20030;-70
2021/10/21 02:53:39;;;;;;;3.78;1.08;;;13.80;78.50;;;;;;5079238;28;20038;-68
2021/10/21 02:56:05;;;;;;;4.20;0.88;;;13.80;78.70;;;;;;5090992;28;20419;-69
2021/10/21 02:58:31;;;;;;;2.78;0.98;;;13.80;78.50;;;;;;5097714;28;20478;-71
2021/10/21 03:00:57;;;;;;;4.25;0.80;;;13.80;77.90;;;;;;5073957;28;20077;-70
2021/10/21 03:03:23;;;;;;;5.43;1.00;;;13.90;77.70;;;;;;5098750;28;20057;-70
2021/10/21 03:05:48;;;;;;;2.80;0.82;;;13.90;78.60;;;;;;5093390;28;20020;-70
2021/10/21 03:08:14;;;;;;;2.08;0.70;;;13.90;77.90;;;;;;5097926;28;20032;-70
2021/10/21 03:10:40;;;;;;;5.65;0.90;;;13.80;77.10;;;;;;5073550;28;20051;-71
2021/10/21 03:13:05;;;;;;;4.72;0.90;;;13.80;77.50;;;;;;5089560;28;20035;-69
2021/10/21 03:15:31;;;;;;;4.82;0.82;;;13.80;77.00;;;;;;5093476;28;20462;-68
2021/10/21 03:17:57;;;;;;;3.95;1.40;;;13.80;76.90;;;;;;5072866;28;20056;-68
2021/10/21 03:20:23;;;;;;;1.80;0.77;;;13.80;77.70;;;;;;5091609;28;20386;-69
2021/10/21 03:22:49;;;;;;;5.43;1.10;;;13.80;77.90;;;;;;5073401;28;20047;-71
2021/10/21 03:25:15;;;;;;;2.60;0.80;;;13.80;78.70;;;;;;5093749;28;20019;-71
2021/10/21 03:27:41;;;;;;;2.85;1.20;;;13.70;79.60;;;;;;5099773;28;20111;-71
2021/10/21 03:30:09;;;;;;;5.60;1.20;;;13.70;80.00;;;;;;5092308;28;20115;-70
2021/10/21 03:32:35;;;;;;;5.20;0.98;;;13.60;80.20;;;;;;5083765;28;20032;-70
2021/10/21 03:35:00;;;;;;;3.88;0.85;;;13.70;81.00;;;;;;5093660;28;20065;-70
2021/10/21 03:37:27;;;;;;;5.72;1.67;;;13.70;81.10;;;;;;5091278;28;20024;-71
2021/10/21 03:39:53;;;;;;;4.32;0.80;;;13.70;81.20;;;;;;5094963;28;20051;-69
2021/10/21 03:42:21;;;;;;;5.10;1.00;;;13.60;81.50;;;;;;5091269;28;20478;-69
2021/10/21 03:44:49;;;;;;;5.38;1.05;;;13.60;81.90;;;;;;5093140;28;20461;-69
2021/10/21 03:47:14;;;;;;;5.22;1.15;;;13.60;82.30;;;;;;5091981;28;20042;-69
2021/10/21 03:49:40;;;;;;;5.35;1.30;;;13.50;82.00;;;;;;5091313;28;20036;-69
2021/10/21 03:52:06;;;;;;;4.75;1.23;;;13.50;82.70;;;;;;5075943;28;20164;-68
2021/10/21 03:54:32;;;;;;;4.22;1.05;;;13.60;82.40;;;;;;5095686;28;20394;-68
2021/10/21 03:56:58;;;;;;;4.78;1.10;;;13.50;82.30;;;;;;5072822;28;20055;-69
2021/10/21 03:59:24;;;;;;;6.72;1.10;;;13.50;82.00;;;;;;5072786;28;20017;-71
2021/10/21 04:01:52;;;;;;;4.72;1.30;;;13.50;81.80;;;;;;5064883;28;20114;-71
2021/10/21 04:04:18;;;;;;;5.55;0.95;;;13.50;82.10;;;;;;5090202;28;20395;-70
2021/10/21 04:06:44;;;;;;;2.88;1.00;;;13.50;82.20;;;;;;5080753;28;20024;-70
2021/10/21 04:09:10;;;;;;;4.78;1.25;;;13.40;82.20;;;;;;5092999;28;20028;-70
2021/10/21 04:11:36;;;;;;;5.07;1.02;;;13.40;82.20;;;;;;5090491;28;20382;-71
2021/10/21 04:14:02;;;;;;;4.88;1.30;;;13.50;82.50;;;;;;5089719;28;20021;-70
2021/10/21 04:16:28;;;;;;;3.80;0.90;;;13.50;82.50;;;;;;5089584;28;20077;-69
2021/10/21 04:18:53;;;;;;;3.35;0.93;;;13.40;82.70;;;;;;5090221;28;20048;-69
2021/10/21 04:21:20;;;;;;;2.55;0.90;;;13.40;82.90;;;;;;5072246;28;20410;-71
2021/10/21 04:23:46;;;;;;;8.00;1.27;;;13.40;83.40;;;;;;5087245;28;20660;-70
2021/10/21 04:26:12;;;;;;;3.90;0.85;;;13.40;83.90;;;;;;5086612;28;20048;-70
2021/10/21 04:28:37;;;;;;;4.10;0.90;;;13.40;84.20;;;;;;5075760;28;20039;-70
2021/10/21 04:31:04;;;;;;;5.85;1.08;;;13.30;84.50;;;;;;5091805;28;20035;-69
2021/10/21 04:33:29;;;;;;;5.28;1.10;;;13.30;84.70;;;;;;5088389;28;20020;-69
2021/10/21 04:35:55;;;;;;;3.15;1.08;;;13.30;84.90;;;;;;5071077;28;20073;-69
2021/10/21 04:38:21;;;;;;;3.78;1.13;;;13.30;85.00;;;;;;5088674;28;20035;-69
2021/10/21 04:40:47;;;;;;;4.97;0.90;;;13.30;85.10;;;;;;5089660;28;20059;-70
2021/10/21 04:43:12;;;;;;;6.40;1.02;;;13.20;85.30;;;;;;5071340;28;20099;-69
2021/10/21 04:45:38;;;;;;;4.30;1.02;;;13.20;85.60;;;;;;5089616;28;20056;-71
2021/10/21 04:48:04;;;;;;;5.35;1.20;;;13.10;85.70;;;;;;5089493;28;20398;-70
2021/10/21 04:50:30;;;;;;;4.63;0.77;;;13.10;85.80;;;;;;5088898;28;20027;-70
2021/10/21 04:52:56;;;;;;;3.30;1.00;;;13.10;86.10;;;;;;5089837;28;20032;-70
2021/10/21 04:55:22;;;;;;;4.72;1.15;;;13.10;86.20;;;;;;5089227;28;20161;-72
2021/10/21 04:57:49;;;;;;;3.97;1.00;;;13.10;86.30;;;;;;5087239;28;20490;-69
2021/10/21 05:00:16;;;;;;;4.57;0.88;;;13.10;86.60;;;;;;5086332;28;20035;-69
2021/10/21 05:02:42;;;;;;;5.15;1.20;;;13.10;86.60;;;;;;5081474;28;20055;-70
2021/10/21 05:05:08;;;;;;;6.60;1.20;;;13.10;86.60;;;;;;5088498;28;20039;-70
2021/10/21 05:07:34;;;;;;;3.92;1.13;;;13.10;86.70;;;;;;5071286;28;20028;-69
2021/10/21 05:09:59;;;;;;;5.05;1.10;;;13.00;86.60;;;;;;5071249;28;20593;-71
2021/10/21 05:12:25;;;;;;;5.28;1.15;;;13.10;86.70;;;;;;5089756;28;20111;-69
2021/10/21 05:14:52;;;;;;;3.28;1.23;;;13.10;86.60;;;;;;5088600;28;20085;-69
2021/10/21 05:17:21;;;;;;;5.18;1.17;;;13.10;86.90;;;;;;5089591;28;20060;-69
2021/10/21 05:19:46;;;;;;;5.50;1.00;;;13.00;86.90;;;;;;5088482;28;20098;-69
2021/10/21 05:22:12;;;;;;;6.38;1.20;;;13.10;87.00;;;;;;5054838;28;20035;-70
2021/10/21 05:24:38;;;;;;;6.20;1.30;;;13.10;86.90;;;;;;5088544;28;20032;-69
2021/10/21 05:27:03;;;;;;;5.70;1.95;;;13.10;87.00;;;;;;5090590;28;20388;-69
2021/10/21 05:29:29;;;;;;;4.35;1.10;;;13.10;87.00;;;;;;5093306;28;20103;-69
2021/10/21 05:31:56;;;;;;;6.93;1.05;;;13.10;87.10;;;;;;5083959;28;20085;-71
2021/10/21 05:34:22;;;;;;;6.93;1.42;;;13.00;87.20;;;;;;5090187;28;20497;-70
2021/10/21 05:36:48;;;;;;;4.07;1.20;;;13.10;87.40;;;;;;5080111;28;20024;-71
2021/10/21 05:39:14;;;;;;;4.13;1.27;;;13.10;87.40;;;;;;5104463;28;20551;-70
2021/10/21 05:41:41;;;;;;;5.10;1.38;;;13.10;87.50;;;;;;5094689;28;20107;-70
2021/10/21 05:44:07;;;;;;;3.97;1.50;;;13.10;87.50;;;;;;5086756;28;20466;-71
2021/10/21 05:46:33;;;;;;;8.23;1.73;;;13.00;87.60;;;;;;5082234;28;20449;-70
2021/10/21 05:48:59;;;;;;;3.35;1.42;;;13.00;87.80;;;;;;5105775;28;20452;-69
2021/10/21 05:51:25;;;;;;;4.07;1.50;;;12.90;87.30;;;;;;5088589;28;20027;-69
2021/10/21 05:53:53;;;;;;;1.67;1.00;;;12.80;87.20;;;;;;5082943;28;20035;-71
2021/10/21 05:56:19;;;;;;;2.10;0.85;;;12.70;87.10;;;;;;5082341;28;20063;-71
2021/10/21 05:58:44;;;;;;;1.77;0.80;;;12.70;86.60;;;;;;5078400;28;20491;-70
2021/10/21 06:01:10;;;;;;;2.35;0.90;;;12.60;86.20;;;;;;5090828;28;20507;-71
2021/10/21 06:03:36;;;;;;;1.23;0.60;;;12.60;86.40;;;;;;5086272;28;20163;-70
2021/10/21 06:06:06;;;;;;;3.10;0.70;;;12.50;86.30;;;;;;5080304;28;20032;-69
2021/10/21 06:08:32;;;;;;;2.05;0.77;;;12.50;86.00;;;;;;5102094;28;20024;-69
2021/10/21 06:11:01;;;;;;;1.23;0.50;;;12.50;85.60;;;;;;5086913;28;20035;-70
2021/10/21 06:13:26;;;;;;;1.40;0.40;;;12.40;85.20;;;;;;5092642;28;20051;-69
2021/10/21 06:15:52;;;;;;;2.42;0.50;;;12.40;85.10;;;;;;5083857;28;20070;-69
2021/10/21 06:18:18;;;;;;;1.95;0.60;;;12.30;85.10;;;;;;5095566;28;20055;-69
2021/10/21 06:20:45;;;;;;;2.50;0.45;;;12.30;85.00;;;;;;5090499;28;20035;-70
2021/10/21 06:23:10;;;;;;;2.63;0.55;;;12.20;84.90;;;;;;5073035;28;20024;-70
2021/10/21 06:25:36;;;;;;;2.50;0.60;;;12.20;85.20;;;;;;5091175;28;20024;-70
2021/10/21 06:28:02;;;;;;;3.00;0.63;;;12.10;85.30;;;;;;5091890;28;20049;-70
2021/10/21 06:30:28;;;;;;;3.30;0.65;;;12.10;85.50;;;;;;5092309;28;20036;-69
2021/10/21 06:32:54;;;;;;;4.10;0.50;;;12.10;85.70;;;;;;5074476;28;20028;-69
2021/10/21 06:35:20;;;;;;;2.47;0.60;;;12.10;85.70;;;;;;5091203;28;20504;-69
2021/10/21 06:37:49;;;;;;;3.80;0.70;;;12.10;85.80;;;;;;5073849;28;20036;-69
2021/10/21 06:40:16;;;;;;;4.80;1.15;;;12.10;85.50;;;;;;5073673;28;20127;-70
2021/10/21 06:42:42;;;;;;;4.22;1.38;;;12.10;85.60;;;;;;5073905;28;20008;-69
2021/10/21 06:45:11;;;;;;;4.38;1.00;;;12.20;85.70;;;;;;5072728;28;20031;-70
2021/10/21 06:47:40;;;;;;;4.18;0.73;;;12.20;85.60;;;;;;5092094;28;20043;-70
2021/10/21 06:50:10;;;;;;;3.60;0.80;;;12.10;85.40;;;;;;5087086;28;20401;-69
2021/10/21 06:52:37;;;;;;;3.63;0.95;;;12.10;85.70;;;;;;5094577;28;20065;-70
2021/10/21 06:55:04;;;;;;;4.15;0.88;;;12.10;85.70;;;;;;5092515;28;20020;-70
2021/10/21 06:57:29;;;;;;;5.05;1.00;;;12.10;86.20;;;;;;5089254;28;20442;-68
2021/10/21 06:59:55;;;;;;;7.05;1.25;;;12.10;86.10;;;;;;5088334;28;20106;-71
2021/10/21 07:02:21;;;;;;;4.32;0.98;;;12.10;86.10;;;;;;5071716;28;20119;-68
2021/10/21 07:04:46;;;;;;;6.55;1.15;;;12.10;86.10;;;;;;5096555;27;20485;-70
2021/10/21 07:07:12;;;;;;;7.60;1.02;;;12.10;85.90;;;;;;5090762;28;20079;-69
2021/10/21 07:09:38;;;;;;;6.15;1.20;;;12.10;85.80;;;;;;5091586;28;20031;-71
2021/10/21 07:12:04;;;;;;;5.30;1.45;;;12.10;85.90;;;;;;5072935;28;20035;-68
2021/10/21 07:14:29;;;;;;;7.35;1.05;;;12.10;85.80;;;;;;5090395;28;20462;-71
2021/10/21 07:16:55;;;;;;;10.20;1.23;;;12.10;85.60;;;;;;5057055;28;20441;-69
2021/10/21 07:19:21;;;;;;;6.82;1.13;;;12.10;85.70;;;;;;5072644;28;20402;-69
2021/10/21 07:21:46;;;;;;;6.80;1.60;;;12.20;85.60;;;;;;5073255;28;20111;-69
2021/10/21 07:24:12;;;;;;;13.57;1.92;;;12.10;85.50;;;;;;5090873;28;20036;-69
2021/10/21 07:26:38;;;;;;;11.77;1.15;;;12.10;85.50;;;;;;5091096;28;20048;-68
2021/10/21 07:29:04;;;;;;;8.82;1.48;;;12.10;85.00;;;;;;5090805;28;20028;-69
2021/10/21 07:31:29;;;;;;;12.32;1.60;;;12.10;85.00;;;;;;5091038;28;20059;-68
2021/10/21 07:33:55;;;;;;;8.43;1.33;;;12.20;85.20;;;;;;5090450;28;20074;-69
2021/10/21 07:36:22;;;;;;;6.07;1.33;;;12.20;85.20;;;;;;5090703;28;21192;-68
2021/10/21 07:38:49;;;;;;;4.60;1.23;;;12.20;85.10;;;;;;5072322;28;20092;-68
2021/10/21 07:41:17;;;;;;;8.85;1.35;;;12.20;85.00;;;;;;5091074;28;20032;-69
2021/10/21 07:43:43;;;;;;;6.85;1.20;;;12.20;85.10;;;;;;5090357;28;20130;-68
2021/10/21 07:46:09;;;;;;;11.32;2.55;;;12.30;85.10;;;;;;5073105;28;20028;-69
2021/10/21 07:48:35;;;;;;;10.98;1.83;;;12.30;85.00;;;;;;5090228;28;20037;-68
2021/10/21 07:51:00;;;;;;;11.68;2.13;;;12.30;84.30;;;;;;5089354;28;20045;-69
2021/10/21 07:53:32;;;;;;;16.75;2.17;;;12.30;84.50;;;;;;5071454;28;20390;-69
2021/10/21 07:55:58;;;;;;;12.77;1.92;;;12.30;84.40;;;;;;5106190;28;20043;-70
2021/10/21 07:58:24;;;;;;;8.43;1.95;;;12.20;84.20;;;;;;5090821;28;20390;-69
2021/10/21 08:00:50;;;;;;;10.93;2.45;;;12.20;83.60;;;;;;5089824;28;20036;-71
2021/10/21 08:03:18;;;;;;;8.68;2.53;;;12.20;84.00;;;;;;5087246;28;20024;-69
2021/10/21 08:05:44;;;;;;;9.23;2.08;;;12.20;84.20;;;;;;5087852;28;20024;-70
2021/10/21 08:08:10;;;;;;;11.75;2.20;;;12.20;84.20;;;;;;5070643;28;20091;-70
2021/10/21 08:10:36;;;;;;;10.52;2.17;;;12.10;83.80;;;;;;5088955;28;20024;-68
2021/10/21 08:13:02;;;;;;;14.38;2.22;;;12.10;83.80;;;;;;5088800;28;20031;-68
2021/10/21 08:15:28;;;;;;;11.60;2.08;;;12.10;83.80;;;;;;5070820;28;20028;-67
2021/10/21 08:17:54;;;;;;;11.43;2.22;;;12.10;83.60;;;;;;5105607;28;20035;-68
2021/10/21 08:20:26;;;;;;;16.73;3.47;;;12.10;83.30;;;;;;5089496;28;20455;-68
2021/10/21 08:22:52;;;;;;;10.93;2.47;;;12.20;82.90;;;;;;5089098;28;20027;-68
2021/10/21 08:25:18;;;;;;;11.80;2.28;;;12.20;82.40;;;;;;5072089;28;20024;-70
2021/10/21 08:27:44;;;;;;;13.07;2.22;;;12.20;81.50;;;;;;5089779;28;20103;-69
2021/10/21 08:30:15;;;;;;;9.02;2.20;;;12.20;80.90;;;;;;5071586;28;20028;-67
2021/10/21 08:32:42;;;;;;;10.18;2.03;;;12.20;79.10;;;;;;5072439;28;20032;-67
2021/10/21 08:35:14;;;;;;;11.85;1.98;;;12.30;78.80;;;;;;5088722;28;20414;-69
2021/10/21 08:37:39;;;;;;;10.50;1.88;;;12.30;77.50;;;;;;5089835;28;20020;-72
2021/10/21 08:40:06;;;;;;;11.82;3.28;;;12.30;77.60;;;;;;5070492;28;20028;-71
2021/10/21 08:42:32;;;;;;;10.73;1.80;;;12.30;77.20;;;;;;5072019;28;20028;-69
2021/10/21 08:44:57;;;;;;;9.40;1.88;;;12.40;77.30;;;;;;5088985;28;20446;-70
2021/10/21 08:47:24;;;;;;;14.80;2.40;;;12.40;76.20;;;;;;5088443;28;20055;-70
2021/10/21 08:49:52;;;;;;;11.02;1.98;;;12.50;76.30;;;;;;5069982;28;20115;-70
2021/10/21 08:52:18;;;;;;;8.98;2.05;;;12.60;76.80;;;;;;5067927;28;20069;-70
2021/10/21 08:54:44;;;;;;;9.98;1.98;;;12.70;75.00;;;;;;5088284;28;20032;-70
2021/10/21 08:57:14;;;;;;;8.15;1.58;;;12.80;74.70;;;;;;5071503;28;20028;-71
2021/10/21 08:59:41;;;;;;;6.07;1.63;;;12.90;74.50;;;;;;5089741;28;20125;-68
2021/10/21 09:02:25;;;;;;;6.93;1.73;;;13.00;74.40;;;;;;5089235;28;20024;-69
2021/10/21 09:05:04;;;;;;;11.07;2.90;;;13.10;73.50;;;;;;5088924;28;20755;-68
2021/10/21 09:10:15;;;;;;;6.60;1.30;;;12.90;75.30;;;;;;5089061;28;20055;-71
2021/10/21 09:12:47;;;;;;;7.05;1.65;;;12.60;75.90;;;;;;5086975;28;20110;-68
2021/10/21 09:15:19;;;;;;;4.80;1.38;;;12.30;77.00;;;;;;5088556;28;20038;-71
2021/10/21 09:17:47;;;;;;;6.20;1.80;;;12.10;78.30;;;;;;5089502;28;20176;-69
2021/10/21 09:20:41;;;;;;;8.65;1.60;;;12.00;79.30;;;;;;5089304;28;20103;-69
2021/10/21 09:23:13;;;;;;;8.25;1.58;;;11.90;80.30;;;;;;5083938;28;20032;-71
2021/10/21 09:25:40;;;;;;;8.98;1.92;;;11.90;81.60;;;;;;5089302;28;20012;-71
2021/10/21 09:28:16;;;;;;;6.65;1.58;;;11.90;81.40;;;;;;5088888;28;20036;-71
2021/10/21 09:30:52;;;;;;;9.02;1.38;;;11.90;81.80;;;;;;5089379;28;20103;-69
2021/10/21 09:33:18;;;;;;;5.50;1.42;;;11.80;82.30;;;;;;5070258;28;20147;-69
2021/10/21 09:36:00;;;;;;;6.82;1.60;;;11.80;82.90;;;;;;5089446;28;20016;-70
2021/10/21 09:38:33;;;;;;;8.90;1.65;;;11.80;83.20;;;;;;5089368;28;20026;-71
2021/10/21 09:41:22;;;;;;;9.00;2.05;;;11.80;83.40;;;;;;5070707;28;20047;-69
2021/10/21 09:43:52;;;;;;;8.07;1.52;;;11.80;83.50;;;;;;5070585;28;20035;-69
2021/10/21 09:46:41;;;;;;;5.88;1.63;;;11.80;83.70;;;;;;5087720;28;20039;-69
2021/10/21 09:49:32;;;;;;;7.45;1.27;;;11.80;84.10;;;;;;5078075;28;20023;-69
2021/10/21 09:52:01;;;;;;;9.02;1.98;;;11.80;84.20;;;;;;5102003;28;20405;-68
2021/10/21 09:54:28;;;;;;;5.30;1.85;;;11.80;84.60;;;;;;5095586;28;20081;-68
2021/10/21 09:57:06;;;;;;;10.85;1.70;;;11.80;85.20;;;;;;5087574;28;20283;-68
2021/10/21 09:59:36;;;;;;;7.30;1.60;;;11.80;84.90;;;;;;5092193;28;20032;-69
2021/10/21 10:02:21;;;;;;;11.40;1.65;;;11.70;85.20;;;;;;5088731;28;20118;-68
2021/10/21 10:04:50;;;;;;;10.07;1.60;;;11.80;85.50;;;;;;5085388;28;20042;-69
2021/10/21 10:07:19;;;;;;;7.78;1.50;;;11.80;85.70;;;;;;5088423;28;20028;-70
2021/10/21 10:09:47;;;;;;;6.40;1.65;;;11.80;85.90;;;;;;5088887;28;20031;-69
2021/10/21 10:12:15;;;;;;;5.85;1.50;;;11.80;86.20;;;;;;5070698;28;20059;-69
2021/10/21 10:14:47;;;;;;;9.20;1.67;;;11.70;86.50;;;;;;5100206;28;20044;-69
2021/10/21 10:17:14;;;;;;;7.50;1.50;;;11.80;86.80;;;;;;5092736;28;20047;-69
2021/10/21 10:19:48;;;;;;;7.35;1.63;;;11.80;86.90;;;;;;5089445;28;20078;-69
2021/10/21 10:22:31;;;;;;;8.95;1.70;;;11.70;87.20;;;;;;5091169;28;20054;-69
2021/10/21 10:24:58;;;;;;;7.18;1.65;;;11.90;87.70;;;;;;5076399;28;20496;-71
2021/10/21 10:27:29;;;;;;;9.63;1.50;;;12.00;87.50;;;;;;5088190;28;20112;-69
2021/10/21 10:29:57;;;;;;;7.53;2.20;;;12.10;87.50;;;;;;5089436;28;20032;-68
2021/10/21 10:32:41;;;;;;;6.53;1.30;;;12.10;87.90;;;;;;5056225;28;20061;-71
2021/10/21 10:35:09;;;;;;;7.05;1.80;;;12.10;87.80;;;;;;5076377;28;20047;-70
2021/10/21 10:37:38;;;;;;;8.10;1.75;;;12.20;87.80;;;;;;5071267;28;20525;-69
2021/10/21 10:40:04;;;;;;;8.10;1.90;;;12.20;87.80;;;;;;5104072;28;20020;-71
2021/10/21 10:42:30;;;;;;;13.13;1.85;;;12.20;87.80;;;;;;5069953;28;20032;-73
2021/10/21 10:44:59;;;;;;;8.85;1.70;;;12.40;87.90;;;;;;5094575;28;20382;-68
2021/10/21 10:47:45;;;;;;;9.90;1.52;;;12.50;87.70;;;;;;5093774;28;20411;-70
2021/10/21 10:50:25;;;;;;;9.32;1.63;;;12.60;86.90;;;;;;5088057;28;20473;-70
2021/10/21 10:53:01;;;;;;;7.53;1.50;;;12.60;86.10;;;;;;5090602;28;20036;-70
2021/10/21 10:55:42;;;;;;;7.10;2.10;;;12.60;86.00;;;;;;5090891;28;20051;-71
2021/10/21 10:58:14;;;;;;;15.10;1.88;;;12.60;85.60;;;;;;5081202;28;20103;-69
2021/10/21 11:00:49;;;;;;;6.63;1.95;;;12.50;85.10;;;;;;5086820;28;20111;-71
2021/10/21 11:03:29;;;;;;;7.65;1.63;;;12.50;85.40;;;;;;5077412;28;20331;-69
2021/10/21 11:05:56;;;;;;;10.98;2.10;;;12.50;85.70;;;;;;5066771;28;20023;-68
2021/10/21 11:08:58;;;;;;;7.15;1.58;;;12.50;85.80;;;;;;5086350;28;20112;-69
2021/10/21 11:11:50;;;;;;;9.57;1.65;;;12.50;86.00;;;;;;5071462;28;20016;-69
2021/10/21 11:14:19;;;;;;;11.02;1.80;;;12.50;84.80;;;;;;5077881;28;20525;-69
2021/10/21 11:16:48;;;;;;;11.80;1.80;;;12.50;85.00;;;;;;5054589;28;20033;-70
2021/10/21 11:19:44;;;;;;;10.35;2.35;;;12.50;85.00;;;;;;5058589;28;20063;-71
2021/10/21 11:22:37;;;;;;;10.43;2.45;;;12.60;85.10;;;;;;5086523;28;20111;-70
2021/10/21 11:25:06;;;;;;;7.78;1.60;;;12.60;85.10;;;;;;5077505;28;20036;-69
2021/10/21 11:27:41;;;;;;;6.63;1.30;;;12.60;85.20;;;;;;5089341;28;20461;-69
2021/10/21 11:30:14;;;;;;;9.52;1.70;;;12.60;84.50;;;;;;5083990;28;20433;-69
2021/10/21 11:32:41;;;;;;;7.15;1.60;;;12.50;83.80;;;;;;5077728;28;20024;-69
2021/10/21 11:35:18;;;;;;;10.93;1.80;;;12.60;83.20;;;;;;5087509;28;20024;-70
2021/10/21 11:37:52;;;;;;;7.13;1.52;;;12.50;82.50;;;;;;5088430;28;20036;-69
2021/10/21 11:40:27;;;;;;;11.18;1.98;;;12.50;82.40;;;;;;5070542;28;20020;-70
2021/10/21 11:42:59;;;;;;;7.85;1.40;;;12.50;80.20;;;;;;5084925;28;20036;-70
2021/10/21 11:45:27;;;;;;;7.35;1.23;;;12.50;79.60;;;;;;5086812;28;20390;-71
2021/10/21 11:48:10;;;;;;;8.02;2.00;;;12.50;79.50;;;;;;5089356;28;20371;-70
2021/10/21 11:50:45;;;;;;;6.97;1.70;;;12.50;78.60;;;;;;5088164;28;20110;-71
2021/10/21 11:53:14;;;;;;;5.10;1.17;;;12.60;78.50;;;;;;5085531;28;20027;-71
2021/10/21 11:55:41;;;;;;;0.82;0.40;;;12.60;79.30;;;;;;5086828;28;20122;-71
2021/10/21 11:58:16;;;;;;;2.38;0.38;;;12.60;77.50;;;;;;5086331;28;20051;-69
2021/10/21 12:00:49;;;;;;;4.35;0.50;;;12.40;76.90;;;;;;5080199;28;20062;-70
2021/10/21 12:03:16;;;;;;;2.40;0.55;;;12.10;77.50;;;;;;5088478;28;20022;-70
2021/10/21 12:05:43;;;;;;;3.03;0.50;;;11.90;78.20;;;;;;5087111;28;20036;-71
2021/10/21 12:08:11;;;;;;;1.60;0.50;;;11.80;78.80;;;;;;5091784;28;20027;-71
2021/10/21 12:10:46;;;;;;;4.60;0.60;;;11.70;79.50;;;;;;5089395;28;20032;-71
2021/10/21 12:13:27;;;;;;;2.60;0.45;;;11.60;80.00;;;;;;5087157;28;20032;-71
2021/10/21 12:15:55;;;;;;;4.55;0.65;;;11.60;80.50;;;;;;5089549;28;20402;-71
2021/10/21 12:18:24;;;;;;;2.65;0.60;;;11.50;80.80;;;;;;5087925;28;20066;-69
2021/10/21 12:20:53;;;;;;;3.45;0.68;;;11.50;81.00;;;;;;5092655;28;20536;-69
2021/10/21 12:23:27;;;;;;;1.63;0.60;;;11.50;81.00;;;;;;5089918;28;20027;-69
2021/10/21 12:25:59;;;;;;;2.25;0.50;;;11.50;81.30;;;;;;5080845;28;20419;-70
2021/10/21 12:28:49;;;;;;;5.93;1.35;;;11.60;81.40;;;;;;5070825;28;20078;-71
2021/10/21 12:31:17;;;;;;;3.47;0.55;;;11.60;81.50;;;;;;5087257;28;20702;-71
2021/10/21 12:34:01;;;;;;;5.93;0.75;;;11.60;81.10;;;;;;5087154;28;20489;-71
2021/10/21 12:36:32;;;;;;;2.25;0.90;;;11.50;80.70;;;;;;5067339;28;20020;-71
2021/10/21 12:39:08;;;;;;;2.65;0.80;;;11.50;80.40;;;;;;5087952;28;20508;-71
2021/10/21 12:41:57;;;;;;;4.88;1.00;;;11.40;80.50;;;;;;5086485;28;20019;-70
2021/10/21 12:44:44;;;;;;;2.47;0.80;;;11.40;80.40;;;;;;5067018;28;20027;-70
2021/10/21 12:47:27;;;;;;;3.83;0.80;;;11.40;80.60;;;;;;5069479;28;20024;-71
2021/10/21 12:50:00;;;;;;;3.63;0.70;;;11.40;80.80;;;;;;5081150;28;20032;-70
2021/10/21 12:52:40;;;;;;;2.08;0.70;;;11.40;81.40;;;;;;5088113;28;20378;-71
2021/10/21 12:55:17;;;;;;;3.38;0.68;;;11.50;81.50;;;;;;5068698;28;20119;-71